sensor_id;sensor_type;location;lat;lon;timestamp;pressure;altitude;pressure_sealevel;temperature;humidity
29197;BME280;62796;42.654;23.316;2024-03-08T00:01:47;94633.91;;;9.28;60.29
29197;BME280;62796;42.654;23.316;2024-03-08T00:04:13;94637.72;;;9.30;60.68
29197;BME280;62796;42.654;23.316;2024-03-08T00:06:40;94635.22;;;9.32;60.38
29197;BME280;62796;42.654;23.316;2024-03-08T00:09:05;94636.75;;;9.33;60.50
29197;BME280;62796;42.654;23.316;2024-03-08T00:11:36;94604.53;;;9.16;60.66
29197;BME280;62796;42.654;23.316;2024-03-08T00:14:01;94633.72;;;9.31;60.24
29197;BME280;62796;42.654;23.316;2024-03-08T00:16:27;94621.31;;;9.27;60.08
29197;BME280;62796;42.654;23.316;2024-03-08T00:18:52;94623.03;;;9.24;60.03
29197;BME280;62796;42.654;23.316;2024-03-08T00:21:18;94629.31;;;9.25;60.39
29197;BME280;62796;42.654;23.316;2024-03-08T00:23:43;94631.31;;;9.24;59.99
29197;BME280;62796;42.654;23.316;2024-03-08T00:26:09;94624.06;;;9.27;59.93
29197;BME280;62796;42.654;23.316;2024-03-08T00:28:34;94626.16;;;9.32;59.94
29197;BME280;62796;42.654;23.316;2024-03-08T00:31:00;94618.84;;;9.29;59.85
29197;BME280;62796;42.654;23.316;2024-03-08T00:33:26;94625.78;;;9.24;59.86
29197;BME280;62796;42.654;23.316;2024-03-08T00:35:53;94613.78;;;9.27;59.96
29197;BME280;62796;42.654;23.316;2024-03-08T00:38:18;94619.03;;;9.25;59.97
29197;BME280;62796;42.654;23.316;2024-03-08T00:40:44;94617.78;;;9.26;59.68
29197;BME280;62796;42.654;23.316;2024-03-08T00:43:10;94619.31;;;9.27;59.38
29197;BME280;62796;42.654;23.316;2024-03-08T00:45:35;94611.50;;;9.26;59.85
29197;BME280;62796;42.654;23.316;2024-03-08T00:48:02;94604.63;;;9.21;59.62
29197;BME280;62796;42.654;23.316;2024-03-08T00:50:28;94608.72;;;9.26;59.63
29197;BME280;62796;42.654;23.316;2024-03-08T00:52:53;94606.72;;;9.26;59.89
29197;BME280;62796;42.654;23.316;2024-03-08T00:55:19;94604.34;;;9.19;59.97
29197;BME280;62796;42.654;23.316;2024-03-08T00:57:45;94584.59;;;8.97;60.19
29197;BME280;62796;42.654;23.316;2024-03-08T01:00:11;94592.97;;;8.88;60.25
29197;BME280;62796;42.654;23.316;2024-03-08T01:02:38;94589.97;;;8.77;60.53
29197;BME280;62796;42.654;23.316;2024-03-08T01:05:04;94581.41;;;8.75;61.16
29197;BME280;62796;42.654;23.316;2024-03-08T01:07:33;94577.72;;;8.78;61.00
29197;BME280;62796;42.654;23.316;2024-03-08T01:09:58;94582.28;;;8.81;61.15
29197;BME280;62796;42.654;23.316;2024-03-08T01:12:24;94582.19;;;8.90;61.11
29197;BME280;62796;42.654;23.316;2024-03-08T01:14:49;94586.97;;;8.89;60.54
29197;BME280;62796;42.654;23.316;2024-03-08T01:17:15;94588.28;;;8.79;60.50
29197;BME280;62796;42.654;23.316;2024-03-08T01:19:40;94583.22;;;8.78;60.74
29197;BME280;62796;42.654;23.316;2024-03-08T01:22:06;94591.22;;;8.76;61.40
29197;BME280;62796;42.654;23.316;2024-03-08T01:24:31;94585.22;;;8.77;60.95
29197;BME280;62796;42.654;23.316;2024-03-08T01:26:56;94574.75;;;8.81;60.86
29197;BME280;62796;42.654;23.316;2024-03-08T01:29:22;94572.38;;;8.74;60.41
29197;BME280;62796;42.654;23.316;2024-03-08T01:31:47;94576.88;;;8.48;60.63
29197;BME280;62796;42.654;23.316;2024-03-08T01:34:13;94581.91;;;8.50;61.40
29197;BME280;62796;42.654;23.316;2024-03-08T01:36:38;94563.63;;;8.28;62.31
29197;BME280;62796;42.654;23.316;2024-03-08T01:39:04;94577.09;;;8.36;62.04
29197;BME280;62796;42.654;23.316;2024-03-08T01:41:33;94574.91;;;8.40;62.09
29197;BME280;62796;42.654;23.316;2024-03-08T01:43:59;94571.88;;;8.38;62.17
29197;BME280;62796;42.654;23.316;2024-03-08T01:46:24;94571.19;;;8.43;61.76
29197;BME280;62796;42.654;23.316;2024-03-08T01:48:50;94570.63;;;8.39;62.30
29197;BME280;62796;42.654;23.316;2024-03-08T01:51:16;94577.00;;;8.21;62.55
29197;BME280;62796;42.654;23.316;2024-03-08T01:53:43;94571.25;;;8.33;62.33
29197;BME280;62796;42.654;23.316;2024-03-08T01:56:11;94574.84;;;8.49;61.95
29197;BME280;62796;42.654;23.316;2024-03-08T01:58:41;94568.09;;;8.50;61.17
29197;BME280;62796;42.654;23.316;2024-03-08T02:01:11;94570.78;;;8.59;61.02
29197;BME280;62796;42.654;23.316;2024-03-08T02:03:38;94576.13;;;8.62;61.06
29197;BME280;62796;42.654;23.316;2024-03-08T02:06:04;94557.94;;;8.56;60.86
29197;BME280;62796;42.654;23.316;2024-03-08T02:08:30;94567.31;;;8.73;59.97
29197;BME280;62796;42.654;23.316;2024-03-08T02:10:56;94559.31;;;8.75;60.05
29197;BME280;62796;42.654;23.316;2024-03-08T02:13:22;94562.38;;;8.77;60.09
29197;BME280;62796;42.654;23.316;2024-03-08T02:18:16;94566.66;;;8.78;59.49
29197;BME280;62796;42.654;23.316;2024-03-08T02:20:43;94570.94;;;8.79;59.73
29197;BME280;62796;42.654;23.316;2024-03-08T02:23:08;94568.16;;;8.79;59.09
29197;BME280;62796;42.654;23.316;2024-03-08T02:25:34;94571.53;;;8.83;59.17
29197;BME280;62796;42.654;23.316;2024-03-08T02:28:00;94570.00;;;8.82;58.77
29197;BME280;62796;42.654;23.316;2024-03-08T02:30:26;94568.47;;;8.81;59.06
29197;BME280;62796;42.654;23.316;2024-03-08T02:32:55;94566.94;;;8.80;58.51
29197;BME280;62796;42.654;23.316;2024-03-08T02:35:20;94582.19;;;8.90;58.55
29197;BME280;62796;42.654;23.316;2024-03-08T02:37:46;94579.91;;;8.88;58.59
29197;BME280;62796;42.654;23.316;2024-03-08T02:40:13;94580.56;;;8.83;58.80
29197;BME280;62796;42.654;23.316;2024-03-08T02:42:38;94592.38;;;8.84;59.28
29197;BME280;62796;42.654;23.316;2024-03-08T02:45:04;94581.03;;;8.82;58.76
29197;BME280;62796;42.654;23.316;2024-03-08T02:47:31;94574.94;;;8.78;59.07
29197;BME280;62796;42.654;23.316;2024-03-08T02:49:56;94587.16;;;8.86;58.86
29197;BME280;62796;42.654;23.316;2024-03-08T02:52:22;94582.56;;;8.83;59.19
29197;BME280;62796;42.654;23.316;2024-03-08T02:54:48;94585.50;;;8.79;59.77
29197;BME280;62796;42.654;23.316;2024-03-08T02:57:13;94574.88;;;8.63;59.88
29197;BME280;62796;42.654;23.316;2024-03-08T02:59:40;94588.81;;;8.69;58.21
29197;BME280;62796;42.654;23.316;2024-03-08T03:02:05;94584.59;;;8.59;56.37
29197;BME280;62796;42.654;23.316;2024-03-08T03:04:32;94577.38;;;8.61;54.62
29197;BME280;62796;42.654;23.316;2024-03-08T03:07:00;94584.25;;;8.66;54.66
29197;BME280;62796;42.654;23.316;2024-03-08T03:09:26;94559.22;;;8.46;54.29
29197;BME280;62796;42.654;23.316;2024-03-08T03:11:56;94593.75;;;8.65;54.10
29197;BME280;62796;42.654;23.316;2024-03-08T03:14:22;94588.06;;;8.68;53.99
29197;BME280;62796;42.654;23.316;2024-03-08T03:16:47;94590.34;;;8.70;53.69
29197;BME280;62796;42.654;23.316;2024-03-08T03:19:12;94594.91;;;8.73;53.79
29197;BME280;62796;42.654;23.316;2024-03-08T03:21:38;94589.88;;;8.71;53.49
29197;BME280;62796;42.654;23.316;2024-03-08T03:24:04;94598.00;;;8.75;53.12
29197;BME280;62796;42.654;23.316;2024-03-08T03:26:38;94593.88;;;8.70;53.27
29197;BME280;62796;42.654;23.316;2024-03-08T03:29:06;94596.72;;;8.76;52.77
29197;BME280;62796;42.654;23.316;2024-03-08T03:31:34;94608.09;;;8.78;52.24
29197;BME280;62796;42.654;23.316;2024-03-08T03:34:00;94603.84;;;8.68;52.51
29197;BME280;62796;42.654;23.316;2024-03-08T03:36:30;94605.56;;;8.65;52.45
29197;BME280;62796;42.654;23.316;2024-03-08T03:38:56;94608.78;;;8.64;53.11
29197;BME280;62796;42.654;23.316;2024-03-08T03:41:30;94609.97;;;8.72;52.80
29197;BME280;62796;42.654;23.316;2024-03-08T03:43:56;94615.00;;;8.73;52.27
29197;BME280;62796;42.654;23.316;2024-03-08T03:46:21;94612.53;;;8.75;51.97
29197;BME280;62796;42.654;23.316;2024-03-08T03:48:47;94603.25;;;8.64;51.90
29197;BME280;62796;42.654;23.316;2024-03-08T03:51:12;94623.97;;;8.45;53.04
29197;BME280;62796;42.654;23.316;2024-03-08T03:53:40;94617.91;;;8.22;53.68
29197;BME280;62796;42.654;23.316;2024-03-08T03:56:06;94625.41;;;8.31;54.30
29197;BME280;62796;42.654;23.316;2024-03-08T03:58:32;94624.28;;;8.38;54.16
29197;BME280;62796;42.654;23.316;2024-03-08T04:00:58;94627.34;;;8.40;53.35
29197;BME280;62796;42.654;23.316;2024-03-08T04:03:23;94625.19;;;8.44;53.26
29197;BME280;62796;42.654;23.316;2024-03-08T04:05:49;94619.38;;;8.42;53.29
29197;BME280;62796;42.654;23.316;2024-03-08T04:08:14;94623.19;;;8.44;53.88
29197;BME280;62796;42.654;23.316;2024-03-08T04:10:40;94628.81;;;8.50;54.02
29197;BME280;62796;42.654;23.316;2024-03-08T04:13:08;94646.00;;;8.54;53.71
29197;BME280;62796;42.654;23.316;2024-03-08T04:15:37;94634.63;;;8.52;53.65
29197;BME280;62796;42.654;23.316;2024-03-08T04:18:03;94647.81;;;8.57;53.52
29197;BME280;62796;42.654;23.316;2024-03-08T04:20:29;94635.22;;;8.56;52.86
29197;BME280;62796;42.654;23.316;2024-03-08T04:22:55;94645.50;;;8.55;53.01
29197;BME280;62796;42.654;23.316;2024-03-08T04:25:21;94649.31;;;8.58;52.49
29197;BME280;62796;42.654;23.316;2024-03-08T04:27:47;94648.97;;;8.65;52.11
29197;BME280;62796;42.654;23.316;2024-03-08T04:30:14;94652.69;;;8.62;52.26
29197;BME280;62796;42.654;23.316;2024-03-08T04:32:39;94649.91;;;8.62;52.47
29197;BME280;62796;42.654;23.316;2024-03-08T04:35:06;94651.75;;;8.65;52.78
29197;BME280;62796;42.654;23.316;2024-03-08T04:37:32;94659.38;;;8.70;52.75
29197;BME280;62796;42.654;23.316;2024-03-08T04:39:58;94671.34;;;8.67;52.51
29197;BME280;62796;42.654;23.316;2024-03-08T04:42:23;94669.53;;;8.64;52.80
29197;BME280;62796;42.654;23.316;2024-03-08T04:44:50;94660.03;;;8.65;53.15
29197;BME280;62796;42.654;23.316;2024-03-08T04:47:15;94665.72;;;8.61;53.37
29197;BME280;62796;42.654;23.316;2024-03-08T04:49:43;94660.84;;;8.56;53.23
29197;BME280;62796;42.654;23.316;2024-03-08T04:52:08;94661.28;;;8.55;53.22
29197;BME280;62796;42.654;23.316;2024-03-08T04:54:34;94672.50;;;8.51;53.76
29197;BME280;62796;42.654;23.316;2024-03-08T04:56:59;94669.63;;;8.46;53.90
29197;BME280;62796;42.654;23.316;2024-03-08T04:59:26;94671.16;;;8.47;54.23
29197;BME280;62796;42.654;23.316;2024-03-08T05:01:52;94668.00;;;8.39;54.70
29197;BME280;62796;42.654;23.316;2024-03-08T05:04:18;94676.72;;;8.38;54.88
29197;BME280;62796;42.654;23.316;2024-03-08T05:06:43;94666.03;;;8.30;54.90
29197;BME280;62796;42.654;23.316;2024-03-08T05:09:08;94675.06;;;8.31;54.85
29197;BME280;62796;42.654;23.316;2024-03-08T05:11:44;94677.94;;;8.37;55.57
29197;BME280;62796;42.654;23.316;2024-03-08T05:14:10;94679.38;;;8.32;55.28
29197;BME280;62796;42.654;23.316;2024-03-08T05:16:35;94678.31;;;8.29;55.64
29197;BME280;62796;42.654;23.316;2024-03-08T05:19:02;94684.72;;;8.26;55.81
29197;BME280;62796;42.654;23.316;2024-03-08T05:21:27;94692.69;;;8.24;55.99
29197;BME280;62796;42.654;23.316;2024-03-08T05:23:54;94687.94;;;8.25;56.11
29197;BME280;62796;42.654;23.316;2024-03-08T05:26:19;94691.78;;;8.27;56.07
29197;BME280;62796;42.654;23.316;2024-03-08T05:28:45;94693.63;;;8.30;55.99
29197;BME280;62796;42.654;23.316;2024-03-08T05:31:20;94707.97;;;8.44;55.86
29197;BME280;62796;42.654;23.316;2024-03-08T05:33:49;94709.97;;;8.43;55.48
29197;BME280;62796;42.654;23.316;2024-03-08T05:36:15;94710.56;;;8.47;55.77
29197;BME280;62796;42.654;23.316;2024-03-08T05:38:43;94698.94;;;8.43;55.32
29197;BME280;62796;42.654;23.316;2024-03-08T05:41:09;94716.88;;;8.48;55.93
29197;BME280;62796;42.654;23.316;2024-03-08T05:43:34;94715.94;;;8.51;55.91
29197;BME280;62796;42.654;23.316;2024-03-08T05:46:00;94716.09;;;8.47;56.17
29197;BME280;62796;42.654;23.316;2024-03-08T05:48:25;94722.69;;;8.50;55.89
29197;BME280;62796;42.654;23.316;2024-03-08T05:50:51;94724.09;;;8.45;56.00
29197;BME280;62796;42.654;23.316;2024-03-08T05:53:16;94734.00;;;8.52;56.34
29197;BME280;62796;42.654;23.316;2024-03-08T05:55:42;94724.84;;;8.46;56.43
29197;BME280;62796;42.654;23.316;2024-03-08T05:58:07;94733.84;;;8.55;56.25
29197;BME280;62796;42.654;23.316;2024-03-08T06:00:34;94739.72;;;8.48;56.55
29197;BME280;62796;42.654;23.316;2024-03-08T06:03:00;94744.47;;;8.48;56.56
29197;BME280;62796;42.654;23.316;2024-03-08T06:05:25;94744.28;;;8.51;56.37
29197;BME280;62796;42.654;23.316;2024-03-08T06:07:50;94746.75;;;8.49;56.24
29197;BME280;62796;42.654;23.316;2024-03-08T06:10:18;94751.69;;;8.45;56.85
29197;BME280;62796;42.654;23.316;2024-03-08T06:12:44;94755.38;;;8.42;57.26
29197;BME280;62796;42.654;23.316;2024-03-08T06:15:10;94752.78;;;8.39;57.16
29197;BME280;62796;42.654;23.316;2024-03-08T06:17:40;94753.09;;;8.31;57.88
29197;BME280;62796;42.654;23.316;2024-03-08T06:20:06;94754.53;;;8.09;58.34
29197;BME280;62796;42.654;23.316;2024-03-08T06:22:37;94749.84;;;7.82;58.57
29197;BME280;62796;42.654;23.316;2024-03-08T06:25:03;94769.75;;;7.68;59.55
29197;BME280;62796;42.654;23.316;2024-03-08T06:27:28;94751.09;;;7.54;59.65
29197;BME280;62796;42.654;23.316;2024-03-08T06:29:54;94763.47;;;7.76;58.90
29197;BME280;62796;42.654;23.316;2024-03-08T06:32:19;94759.97;;;7.76;58.18
29197;BME280;62796;42.654;23.316;2024-03-08T06:34:45;94767.63;;;7.81;58.27
29197;BME280;62796;42.654;23.316;2024-03-08T06:37:10;94774.19;;;7.93;58.17
29197;BME280;62796;42.654;23.316;2024-03-08T06:39:35;94777.72;;;7.93;57.62
29197;BME280;62796;42.654;23.316;2024-03-08T06:42:01;94779.53;;;7.96;58.14
29197;BME280;62796;42.654;23.316;2024-03-08T06:44:26;94778.91;;;8.01;58.16
29197;BME280;62796;42.654;23.316;2024-03-08T06:46:52;94779.53;;;8.05;57.54
29197;BME280;62796;42.654;23.316;2024-03-08T06:49:17;94779.81;;;8.07;57.89
29197;BME280;62796;42.654;23.316;2024-03-08T06:51:43;94780.13;;;8.09;57.28
29197;BME280;62796;42.654;23.316;2024-03-08T06:54:08;94781.34;;;8.17;56.97
29197;BME280;62796;42.654;23.316;2024-03-08T06:56:37;94780.56;;;8.17;56.99
29197;BME280;62796;42.654;23.316;2024-03-08T06:59:02;94781.19;;;8.21;56.57
29197;BME280;62796;42.654;23.316;2024-03-08T07:01:28;94780.09;;;8.27;56.54
29197;BME280;62796;42.654;23.316;2024-03-08T07:03:57;94789.47;;;8.30;56.23
29197;BME280;62796;42.654;23.316;2024-03-08T07:06:22;94779.78;;;8.34;56.36
29197;BME280;62796;42.654;23.316;2024-03-08T07:08:48;94789.88;;;8.38;56.01
29197;BME280;62796;42.654;23.316;2024-03-08T07:11:14;94784.06;;;8.36;55.36
29197;BME280;62796;42.654;23.316;2024-03-08T07:13:44;94789.88;;;8.38;54.11
29197;BME280;62796;42.654;23.316;2024-03-08T07:16:10;94790.50;;;8.42;54.59
29197;BME280;62796;42.654;23.316;2024-03-08T07:18:37;94791.44;;;8.39;55.21
29197;BME280;62796;42.654;23.316;2024-03-08T07:21:05;94792.00;;;8.43;54.53
29197;BME280;62796;42.654;23.316;2024-03-08T07:23:30;94792.63;;;8.47;53.73
29197;BME280;62796;42.654;23.316;2024-03-08T07:26:15;94798.75;;;8.51;52.88
29197;BME280;62796;42.654;23.316;2024-03-08T07:28:40;94800.13;;;8.46;53.47
29197;BME280;62796;42.654;23.316;2024-03-08T07:31:06;94801.53;;;8.42;52.93
29197;BME280;62796;42.654;23.316;2024-03-08T07:33:46;94799.84;;;8.44;53.81
29197;BME280;62796;42.654;23.316;2024-03-08T07:36:11;94804.44;;;8.47;52.84
29197;BME280;62796;42.654;23.316;2024-03-08T07:38:37;94802.97;;;8.61;52.19
29197;BME280;62796;42.654;23.316;2024-03-08T07:41:03;94802.97;;;8.61;52.49
29197;BME280;62796;42.654;23.316;2024-03-08T07:43:28;94804.81;;;8.64;53.23
29197;BME280;62796;42.654;23.316;2024-03-08T07:45:54;94810.50;;;8.60;53.45
29197;BME280;62796;42.654;23.316;2024-03-08T07:48:20;94806.59;;;8.76;52.72
29197;BME280;62796;42.654;23.316;2024-03-08T07:50:46;94810.25;;;8.82;53.05
29197;BME280;62796;42.654;23.316;2024-03-08T07:53:11;94799.00;;;8.95;52.21
29197;BME280;62796;42.654;23.316;2024-03-08T07:55:37;94805.13;;;8.99;52.45
29197;BME280;62796;42.654;23.316;2024-03-08T07:58:03;94800.94;;;9.03;52.48
29197;BME280;62796;42.654;23.316;2024-03-08T08:00:31;94808.00;;;9.04;52.86
29197;BME280;62796;42.654;23.316;2024-03-08T08:02:57;94800.06;;;8.97;53.14
29197;BME280;62796;42.654;23.316;2024-03-08T08:05:22;94804.38;;;8.98;53.44
29197;BME280;62796;42.654;23.316;2024-03-08T08:07:48;94807.66;;;9.11;52.77
29197;BME280;62796;42.654;23.316;2024-03-08T08:10:15;94809.78;;;9.16;52.75
29197;BME280;62796;42.654;23.316;2024-03-08T08:12:47;94809.78;;;9.16;53.15
29197;BME280;62796;42.654;23.316;2024-03-08T08:15:13;94805.09;;;9.31;52.16
29197;BME280;62796;42.654;23.316;2024-03-08T08:17:41;94794.59;;;9.35;51.75
29197;BME280;62796;42.654;23.316;2024-03-08T08:20:08;94798.41;;;9.38;52.67
29197;BME280;62796;42.654;23.316;2024-03-08T08:22:34;94800.06;;;9.44;52.54
29197;BME280;62796;42.654;23.316;2024-03-08T08:24:59;94798.13;;;9.60;51.87
29197;BME280;62796;42.654;23.316;2024-03-08T08:27:24;94794.94;;;9.76;51.44
29197;BME280;62796;42.654;23.316;2024-03-08T08:29:51;94799.72;;;9.90;50.58
29197;BME280;62796;42.654;23.316;2024-03-08T08:32:16;94793.91;;;9.88;49.52
29197;BME280;62796;42.654;23.316;2024-03-08T08:34:44;94800.47;;;9.90;49.87
29197;BME280;62796;42.654;23.316;2024-03-08T08:37:09;94800.84;;;9.98;49.25
29197;BME280;62796;42.654;23.316;2024-03-08T08:39:35;94802.78;;;10.07;49.31
29197;BME280;62796;42.654;23.316;2024-03-08T08:42:00;94793.03;;;9.82;49.67
29197;BME280;62796;42.654;23.316;2024-03-08T08:44:27;94790.53;;;9.84;49.95
29197;BME280;62796;42.654;23.316;2024-03-08T08:46:53;94788.06;;;10.00;49.65
29197;BME280;62796;42.654;23.316;2024-03-08T08:49:19;94788.88;;;10.16;49.07
29197;BME280;62796;42.654;23.316;2024-03-08T08:51:49;94780.69;;;10.36;49.03
29197;BME280;62796;42.654;23.316;2024-03-08T08:54:15;94786.22;;;10.50;48.90
29197;BME280;62796;42.654;23.316;2024-03-08T08:56:42;94782.38;;;10.63;48.61
29197;BME280;62796;42.654;23.316;2024-03-08T08:59:09;94787.41;;;10.79;48.79
29197;BME280;62796;42.654;23.316;2024-03-08T09:01:39;94783.88;;;10.93;48.11
29197;BME280;62796;42.654;23.316;2024-03-08T09:04:04;94775.97;;;11.06;47.16
29197;BME280;62796;42.654;23.316;2024-03-08T09:06:30;94770.03;;;11.13;48.12
29197;BME280;62796;42.654;23.316;2024-03-08T09:08:56;94780.16;;;11.16;46.80
29197;BME280;62796;42.654;23.316;2024-03-08T09:11:23;94781.38;;;11.15;46.33
29197;BME280;62796;42.654;23.316;2024-03-08T09:13:49;94790.16;;;11.28;46.01
29197;BME280;62796;42.654;23.316;2024-03-08T09:16:14;94779.19;;;11.39;44.46
29197;BME280;62796;42.654;23.316;2024-03-08T09:18:41;94783.47;;;11.20;43.55
29197;BME280;62796;42.654;23.316;2024-03-08T09:21:07;94778.22;;;11.22;44.73
29197;BME280;62796;42.654;23.316;2024-03-08T09:23:37;94781.53;;;11.26;44.32
29197;BME280;62796;42.654;23.316;2024-03-08T09:26:03;94777.59;;;11.33;44.40
29197;BME280;62796;42.654;23.316;2024-03-08T09:28:29;94783.50;;;11.40;43.78
29197;BME280;62796;42.654;23.316;2024-03-08T09:30:54;94791.06;;;11.60;43.64
29197;BME280;62796;42.654;23.316;2024-03-08T09:33:20;94778.22;;;12.03;41.76
29197;BME280;62796;42.654;23.316;2024-03-08T09:35:46;94783.31;;;12.67;41.35
29197;BME280;62796;42.654;23.316;2024-03-08T09:38:16;94784.53;;;12.92;39.35
29197;BME280;62796;42.654;23.316;2024-03-08T09:40:42;94787.88;;;13.38;38.75
29197;BME280;62796;42.654;23.316;2024-03-08T09:43:08;94783.53;;;13.79;37.65
29197;BME280;62796;42.654;23.316;2024-03-08T09:45:36;94787.56;;;13.78;37.71
29197;BME280;62796;42.654;23.316;2024-03-08T09:48:05;94781.66;;;13.54;37.36
29197;BME280;62796;42.654;23.316;2024-03-08T09:50:30;94783.38;;;12.72;39.42
29197;BME280;62796;42.654;23.316;2024-03-08T09:52:57;94774.22;;;12.35;40.09
29197;BME280;62796;42.654;23.316;2024-03-08T09:55:25;94779.91;;;12.52;40.35
29197;BME280;62796;42.654;23.316;2024-03-08T09:57:51;94772.84;;;12.51;40.28
29197;BME280;62796;42.654;23.316;2024-03-08T10:00:36;94779.56;;;12.39;40.90
29197;BME280;62796;42.654;23.316;2024-03-08T10:03:02;94771.50;;;12.72;40.11
29197;BME280;62796;42.654;23.316;2024-03-08T10:05:30;94774.66;;;12.91;39.43
29197;BME280;62796;42.654;23.316;2024-03-08T10:07:55;94771.00;;;13.05;39.11
29197;BME280;62796;42.654;23.316;2024-03-08T10:10:20;94776.91;;;12.55;41.10
29197;BME280;62796;42.654;23.316;2024-03-08T10:12:48;94774.50;;;12.37;41.34
29197;BME280;62796;42.654;23.316;2024-03-08T10:15:15;94777.97;;;12.32;40.99
29197;BME280;62796;42.654;23.316;2024-03-08T10:17:42;94777.09;;;12.46;39.85
29197;BME280;62796;42.654;23.316;2024-03-08T10:20:18;94772.84;;;12.51;39.70
29197;BME280;62796;42.654;23.316;2024-03-08T10:22:44;94766.78;;;12.52;39.75
29197;BME280;62796;42.654;23.316;2024-03-08T10:25:13;94778.75;;;12.64;39.82
29197;BME280;62796;42.654;23.316;2024-03-08T10:27:39;94780.13;;;12.74;40.06
29197;BME280;62796;42.654;23.316;2024-03-08T10:30:13;94777.66;;;12.50;40.59
29197;BME280;62796;42.654;23.316;2024-03-08T10:32:40;94769.50;;;12.15;42.72
29197;BME280;62796;42.654;23.316;2024-03-08T10:35:07;94766.44;;;11.88;42.54
29197;BME280;62796;42.654;23.316;2024-03-08T10:37:38;94771.88;;;11.77;42.79
29197;BME280;62796;42.654;23.316;2024-03-08T10:40:09;94755.75;;;11.81;42.93
29197;BME280;62796;42.654;23.316;2024-03-08T10:45:34;94764.28;;;11.77;41.99
29197;BME280;62796;42.654;23.316;2024-03-08T10:50:44;94759.84;;;12.11;41.17
29197;BME280;62796;42.654;23.316;2024-03-08T10:53:17;94755.22;;;12.28;41.53
29197;BME280;62796;42.654;23.316;2024-03-08T10:55:43;94752.06;;;13.09;40.54
29197;BME280;62796;42.654;23.316;2024-03-08T10:58:10;94749.69;;;13.98;38.23
29197;BME280;62796;42.654;23.316;2024-03-08T11:00:36;94745.47;;;14.74;37.78
29197;BME280;62796;42.654;23.316;2024-03-08T11:03:02;94746.88;;;15.36;35.38
29197;BME280;62796;42.654;23.316;2024-03-08T11:05:39;94738.09;;;15.90;32.98
29197;BME280;62796;42.654;23.316;2024-03-08T11:08:19;94719.13;;;16.59;31.91
29197;BME280;62796;42.654;23.316;2024-03-08T11:10:51;94728.31;;;17.13;30.37
29197;BME280;62796;42.654;23.316;2024-03-08T11:13:34;94727.13;;;17.76;29.97
29197;BME280;62796;42.654;23.316;2024-03-08T11:16:01;94731.97;;;18.13;29.20
29197;BME280;62796;42.654;23.316;2024-03-08T11:18:27;94733.31;;;17.45;30.32
29197;BME280;62796;42.654;23.316;2024-03-08T11:20:55;94735.06;;;17.48;30.24
29197;BME280;62796;42.654;23.316;2024-03-08T11:23:23;94730.28;;;17.43;29.44
29197;BME280;62796;42.654;23.316;2024-03-08T11:25:49;94723.50;;;17.33;29.70
29197;BME280;62796;42.654;23.316;2024-03-08T11:28:18;94726.78;;;17.12;30.42
29197;BME280;62796;42.654;23.316;2024-03-08T11:33:35;94714.06;;;16.57;30.60
29197;BME280;62796;42.654;23.316;2024-03-08T11:36:22;94710.31;;;16.44;30.81
29197;BME280;62796;42.654;23.316;2024-03-08T11:38:48;94703.78;;;16.36;31.19
29197;BME280;62796;42.654;23.316;2024-03-08T11:41:16;94708.16;;;16.26;31.33
29197;BME280;62796;42.654;23.316;2024-03-08T11:43:43;94705.13;;;15.83;32.19
29197;BME280;62796;42.654;23.316;2024-03-08T11:46:10;94713.81;;;15.74;32.38
29197;BME280;62796;42.654;23.316;2024-03-08T11:48:40;94709.09;;;15.41;32.34
29197;BME280;62796;42.654;23.316;2024-03-08T11:51:12;94703.59;;;15.08;33.07
29197;BME280;62796;42.654;23.316;2024-03-08T11:53:39;94707.19;;;14.91;34.04
29197;BME280;62796;42.654;23.316;2024-03-08T11:56:10;94710.00;;;14.75;33.90
29197;BME280;62796;42.654;23.316;2024-03-08T11:58:40;94709.75;;;14.67;34.04
29197;BME280;62796;42.654;23.316;2024-03-08T12:01:07;94700.63;;;14.50;34.76
29197;BME280;62796;42.654;23.316;2024-03-08T12:03:34;94695.53;;;14.76;34.82
29197;BME280;62796;42.654;23.316;2024-03-08T12:06:03;94704.63;;;14.93;34.11
29197;BME280;62796;42.654;23.316;2024-03-08T12:08:30;94685.81;;;15.22;32.37
29197;BME280;62796;42.654;23.316;2024-03-08T12:10:57;94698.28;;;15.78;31.31
29197;BME280;62796;42.654;23.316;2024-03-08T12:13:33;94705.34;;;16.26;31.01
29197;BME280;62796;42.654;23.316;2024-03-08T12:16:00;94704.97;;;17.05;29.74
29197;BME280;62796;42.654;23.316;2024-03-08T12:18:26;94700.06;;;17.36;29.31
29197;BME280;62796;42.654;23.316;2024-03-08T12:21:07;94692.81;;;18.07;28.37
29197;BME280;62796;42.654;23.316;2024-03-08T12:23:33;94688.66;;;18.51;27.23
29197;BME280;62796;42.654;23.316;2024-03-08T12:26:18;94691.59;;;19.17;26.24
29197;BME280;62796;42.654;23.316;2024-03-08T12:28:48;94691.06;;;19.31;25.60
29197;BME280;62796;42.654;23.316;2024-03-08T12:31:15;94690.28;;;19.18;26.07
29197;BME280;62796;42.654;23.316;2024-03-08T12:36:15;94692.72;;;18.32;26.77
29197;BME280;62796;42.654;23.316;2024-03-08T12:38:43;94675.13;;;18.50;26.83
29197;BME280;62796;42.654;23.316;2024-03-08T12:41:09;94688.47;;;18.44;26.74
29197;BME280;62796;42.654;23.316;2024-03-08T12:43:34;94689.59;;;18.03;27.14
29197;BME280;62796;42.654;23.316;2024-03-08T12:46:00;94674.34;;;17.80;27.94
29197;BME280;62796;42.654;23.316;2024-03-08T12:48:25;94681.53;;;17.57;27.24
29197;BME280;62796;42.654;23.316;2024-03-08T12:50:51;94672.69;;;17.29;27.54
29197;BME280;62796;42.654;23.316;2024-03-08T12:53:17;94681.53;;;17.08;27.81
29197;BME280;62796;42.654;23.316;2024-03-08T12:55:43;94678.25;;;16.80;28.79
29197;BME280;62796;42.654;23.316;2024-03-08T12:58:09;94669.28;;;16.63;30.18
29197;BME280;62796;42.654;23.316;2024-03-08T13:00:34;94676.81;;;16.98;29.92
29197;BME280;62796;42.654;23.316;2024-03-08T13:03:02;94672.34;;;17.56;29.01
29197;BME280;62796;42.654;23.316;2024-03-08T13:05:28;94674.41;;;18.31;28.19
29197;BME280;62796;42.654;23.316;2024-03-08T13:07:55;94667.53;;;18.63;27.14
29197;BME280;62796;42.654;23.316;2024-03-08T13:10:20;94676.16;;;19.63;26.27